createdAt,value
2018-12-18T00:00:18.691Z,95022.55
2018-12-18T00:02:50.684Z,95016.38
2018-12-18T00:05:25.315Z,95014.36
2018-12-18T00:07:54.011Z,95022.75
2018-12-18T00:10:25.232Z,95024.48
2018-12-18T00:12:53.901Z,95030.63
2018-12-18T00:15:22.513Z,95026.89
2018-12-18T00:17:51.111Z,95028.62
2018-12-18T00:20:19.887Z,95029.24
2018-12-18T00:22:48.456Z,95031.59
2018-12-18T00:25:17.105Z,95031.50
2018-12-18T00:27:45.698Z,95031.36
2018-12-18T00:30:14.530Z,95030.18
2018-12-18T00:32:43.179Z,95031.54
2018-12-18T00:35:11.740Z,95046.44
2018-12-18T00:37:40.351Z,95039.70
2018-12-18T00:40:09.264Z,95032.73
2018-12-18T00:42:37.829Z,95039.55
2018-12-18T00:45:06.812Z,95043.52
2018-12-18T00:47:35.408Z,95051.16
2018-12-18T00:50:04.186Z,95050.73
2018-12-18T00:52:32.859Z,95051.98
2018-12-18T00:55:01.460Z,95063.05
2018-12-18T00:57:30.234Z,95074.03
2018-12-18T00:59:58.862Z,95075.09
2018-12-18T01:02:27.483Z,95065.52
2018-12-18T01:04:56.191Z,95070.81
2018-12-18T01:07:24.877Z,95064.45
2018-12-18T01:09:53.566Z,95062.66
2018-12-18T01:12:22.175Z,95070.47
2018-12-18T01:14:50.770Z,95068.13
2018-12-18T01:17:19.661Z,95069.11
2018-12-18T01:19:48.353Z,95075.67
2018-12-18T01:22:16.988Z,95075.19
2018-12-18T01:24:45.783Z,95075.02
2018-12-18T01:27:14.337Z,95070.91
2018-12-18T01:29:42.925Z,95080.85
2018-12-18T01:32:11.546Z,95071.63
2018-12-18T01:34:40.277Z,95075.03
2018-12-18T01:37:08.898Z,95076.05
2018-12-18T01:39:37.466Z,95077.76
2018-12-18T01:42:06.399Z,95075.06
2018-12-18T01:44:34.994Z,95067.25
2018-12-18T01:47:03.616Z,95074.08
2018-12-18T01:49:32.220Z,95074.37
2018-12-18T01:52:00.819Z,95076.08
2018-12-18T01:54:29.449Z,95081.95
2018-12-18T01:56:58.112Z,95074.41
2018-12-18T01:59:26.711Z,95079.12
2018-12-18T02:01:55.316Z,95078.73
2018-12-18T02:04:23.913Z,95073.66
2018-12-18T02:06:52.516Z,95077.18
2018-12-18T02:09:21.116Z,95076.14
2018-12-18T02:11:49.750Z,95080.24
2018-12-18T02:14:18.354Z,95084.00
2018-12-18T02:16:46.977Z,95078.09
2018-12-18T02:19:15.566Z,95076.54
2018-12-18T02:21:44.196Z,95073.30
2018-12-18T02:24:12.966Z,95072.20
2018-12-18T02:26:41.591Z,95075.73
2018-12-18T02:29:10.244Z,95068.29
2018-12-18T02:31:38.824Z,95070.70
2018-12-18T02:34:13.809Z,95073.62
2018-12-18T02:36:38.046Z,95076.05
2018-12-18T02:39:07.833Z,95070.81
2018-12-18T02:43:05.856Z,95072.66
2018-12-18T02:45:34.539Z,95071.97
2018-12-18T02:48:03.147Z,95069.14
2018-12-18T02:50:31.720Z,95070.94
2018-12-18T02:53:00.364Z,95064.42
2018-12-18T02:55:28.985Z,95057.60
2018-12-18T02:57:57.904Z,95061.13
2018-12-18T03:00:26.548Z,95063.79
2018-12-18T03:02:55.162Z,95057.98
2018-12-18T03:05:24.308Z,95065.73
2018-12-18T03:07:52.927Z,95060.81
2018-12-18T03:10:21.552Z,95068.82
2018-12-18T03:12:50.118Z,95069.86
2018-12-18T03:15:18.740Z,95070.50
2018-12-18T03:17:47.342Z,95073.25
2018-12-18T03:20:15.953Z,95078.45
2018-12-18T03:22:44.626Z,95082.36
2018-12-18T03:25:13.355Z,95088.63
2018-12-18T03:27:41.975Z,95088.63
2018-12-18T03:30:11.384Z,95093.09
2018-12-18T03:32:48.995Z,95099.73
2018-12-18T03:35:17.605Z,95103.47
2018-12-18T03:37:46.245Z,95101.63
2018-12-18T03:40:15.327Z,95099.16
2018-12-18T03:42:43.976Z,95105.53
2018-12-18T03:45:12.672Z,95106.89
2018-12-18T03:47:41.226Z,95105.91
2018-12-18T03:50:09.882Z,95104.17
2018-12-18T03:52:38.453Z,95112.59
2018-12-18T03:55:07.255Z,95117.97
2018-12-18T03:57:35.859Z,95117.77
2018-12-18T04:00:09.901Z,95111.80
2018-12-18T04:02:38.568Z,95115.91
2018-12-18T04:05:07.414Z,95118.42
2018-12-18T04:07:36.909Z,95129.02
2018-12-18T04:10:06.206Z,95128.35
2018-12-18T04:12:34.815Z,95134.22
2018-12-18T04:15:03.760Z,95141.17
2018-12-18T04:17:32.341Z,95142.33
2018-12-18T04:20:00.964Z,95140.70
2018-12-18T04:22:29.630Z,95145.99
2018-12-18T04:24:58.252Z,95153.54
2018-12-18T04:27:33.350Z,95169.80
2018-12-18T04:30:02.007Z,95166.28
2018-12-18T04:32:30.730Z,95169.88
2018-12-18T04:35:03.735Z,95168.61
2018-12-18T04:37:32.378Z,95173.87
2018-12-18T04:40:01.054Z,95163.60
2018-12-18T04:42:29.856Z,95173.92
2018-12-18T04:44:58.569Z,95176.93
2018-12-18T04:47:27.229Z,95172.36
2018-12-18T04:49:56.002Z,95172.05
2018-12-18T04:55:56.507Z,95180.58
2018-12-18T04:58:25.385Z,95187.91
2018-12-18T05:00:54.095Z,95193.38
2018-12-18T05:03:23.561Z,95196.50
2018-12-18T05:05:52.223Z,95198.62
2018-12-18T05:08:20.971Z,95197.41
2018-12-18T05:10:49.633Z,95202.64
2018-12-18T05:13:18.224Z,95203.83
2018-12-18T05:15:46.950Z,95207.45
2018-12-18T05:18:15.505Z,95206.02
2018-12-18T05:20:44.134Z,95208.35
2018-12-18T05:23:12.766Z,95211.95
2018-12-18T05:27:10.471Z,95214.89
2018-12-18T05:29:39.106Z,95207.30
2018-12-18T05:32:07.811Z,95211.06
2018-12-18T05:34:36.419Z,95212.25
2018-12-18T05:37:05.041Z,95215.18
2018-12-18T05:39:33.670Z,95219.96
2018-12-18T05:42:02.308Z,95217.77
2018-12-18T05:44:30.907Z,95222.86
2018-12-18T05:46:59.622Z,95226.56
2018-12-18T05:49:28.277Z,95219.43
2018-12-18T05:51:56.991Z,95220.48
2018-12-18T05:54:25.572Z,95229.31
2018-12-18T05:56:54.221Z,95223.26
2018-12-18T05:59:22.849Z,95235.09
2018-12-18T06:01:51.512Z,95236.06
2018-12-18T06:04:20.157Z,95234.33
2018-12-18T06:06:48.798Z,95235.08
2018-12-18T06:09:17.445Z,95239.79
2018-12-18T06:15:17.755Z,95240.03
2018-12-18T06:17:46.454Z,95240.63
2018-12-18T06:20:15.059Z,95248.27
2018-12-18T06:22:43.640Z,95240.28
2018-12-18T06:25:12.306Z,95252.08
2018-12-18T06:27:40.941Z,95248.40
2018-12-18T06:30:15.155Z,95255.15
2018-12-18T06:32:43.749Z,95253.80
2018-12-18T06:35:12.354Z,95258.08
2018-12-18T06:37:40.960Z,95258.88
2018-12-18T06:40:09.626Z,95257.69
2018-12-18T06:42:38.273Z,95264.52
2018-12-18T06:45:07.599Z,95254.25
2018-12-18T06:47:36.302Z,95262.18
2018-12-18T06:50:05.097Z,95262.91
2018-12-18T06:52:33.732Z,95266.89
2018-12-18T06:55:02.376Z,95268.55
2018-12-18T06:57:30.970Z,95275.13
2018-12-18T06:59:59.561Z,95272.06
2018-12-18T14:10:17.956Z,95301.19
2018-12-18T14:12:50.723Z,95298.35
2018-12-18T14:15:20.101Z,95302.09
2018-12-18T14:17:48.792Z,95302.61
2018-12-18T14:20:17.391Z,95296.55
2018-12-18T14:22:46.000Z,95300.58
2018-12-18T14:25:14.653Z,95299.86
2018-12-18T14:27:43.291Z,95303.80
2018-12-18T14:30:12.370Z,95305.97
2018-12-18T14:32:41.019Z,95308.00
2018-12-18T14:35:09.711Z,95307.87
2018-12-18T14:37:38.340Z,95315.71
2018-12-18T14:40:07.085Z,95310.84
2018-12-18T14:42:35.681Z,95312.58
2018-12-18T14:45:04.622Z,95308.90
2018-12-18T14:47:33.416Z,95315.13
2018-12-18T14:50:02.228Z,95311.68
2018-12-18T14:52:30.871Z,95310.33
2018-12-18T14:54:59.502Z,95313.98
2018-12-18T14:57:28.123Z,95308.89
2018-12-18T14:59:56.772Z,95318.86
2018-12-18T15:02:25.562Z,95316.98
2018-12-18T15:04:54.166Z,95307.84
2018-12-18T15:07:22.802Z,95314.27
2018-12-18T15:09:51.538Z,95312.41
2018-12-18T15:12:20.182Z,95318.63
2018-12-18T15:14:48.853Z,95313.25
2018-12-18T15:17:17.844Z,95313.84
2018-12-18T15:19:46.431Z,95316.22
2018-12-18T15:22:15.084Z,95317.72
2018-12-18T15:24:43.657Z,95311.65
2018-12-18T15:27:12.206Z,95318.16
2018-12-18T15:29:40.826Z,95314.80
2018-12-18T15:32:09.508Z,95313.45
2018-12-18T15:34:38.273Z,95311.58
2018-12-18T15:37:09.755Z,95318.69
2018-12-18T15:39:37.549Z,95319.20
2018-12-18T15:42:06.241Z,95321.83
2018-12-18T15:44:34.896Z,95323.59
2018-12-18T15:47:03.554Z,95324.19
2018-12-18T15:49:32.196Z,95325.17
2018-12-18T15:52:00.781Z,95323.30
2018-12-18T15:54:29.430Z,95322.19
2018-12-18T15:56:58.043Z,95319.77
2018-12-18T15:59:26.672Z,95324.71
2018-12-18T16:01:55.291Z,95330.69
2018-12-18T16:04:23.865Z,95328.80
2018-12-18T16:06:52.529Z,95333.51
2018-12-18T16:09:21.246Z,95334.27
2018-12-18T16:11:49.963Z,95340.47
2018-12-18T16:14:18.642Z,95341.31
2018-12-18T16:16:47.305Z,95343.78
2018-12-18T16:19:16.204Z,95341.63
2018-12-18T16:21:45.238Z,95343.48
2018-12-18T16:24:13.876Z,95349.14
2018-12-18T16:26:43.252Z,95340.33
2018-12-18T16:29:11.890Z,95345.48
2018-12-18T16:31:40.560Z,95350.14
2018-12-18T16:34:09.248Z,95354.41
2018-12-18T16:36:37.993Z,95355.20
2018-12-18T16:39:08.104Z,95357.71
2018-12-18T16:41:37.054Z,95361.91
2018-12-18T16:44:05.703Z,95365.83
2018-12-18T16:46:34.291Z,95367.37
2018-12-18T16:49:02.832Z,95365.67
2018-12-18T16:51:31.532Z,95365.91
2018-12-18T16:54:00.697Z,95373.41
2018-12-18T16:56:29.283Z,95382.97
2018-12-18T16:58:58.310Z,95383.86
2018-12-18T17:01:26.911Z,95382.20
2018-12-18T17:03:55.574Z,95383.98
2018-12-18T17:06:24.181Z,95379.51
2018-12-18T17:08:52.784Z,95384.28
2018-12-18T17:11:21.564Z,95381.75
2018-12-18T17:15:19.669Z,95385.02
2018-12-18T17:17:48.241Z,95386.56
2018-12-18T17:20:16.834Z,95390.45
2018-12-18T17:22:45.567Z,95386.91
2018-12-18T17:26:43.582Z,95394.50
2018-12-18T17:29:12.264Z,95393.34
2018-12-18T17:31:40.871Z,95395.06
2018-12-18T17:34:09.531Z,95396.69
2018-12-18T17:36:38.117Z,95398.61
2018-12-18T17:39:08.208Z,95391.83
2018-12-18T17:41:37.111Z,95402.12
2018-12-18T17:44:05.729Z,95396.72
2018-12-18T17:46:34.325Z,95407.42
2018-12-18T17:49:02.931Z,95407.20
2018-12-18T17:52:02.398Z,95402.50
2018-12-18T17:54:31.158Z,95399.69
2018-12-18T17:56:59.765Z,95412.14
2018-12-18T17:59:28.373Z,95420.75
2018-12-18T18:01:56.928Z,95411.81
2018-12-18T18:04:25.533Z,95414.28
2018-12-18T18:06:54.233Z,95417.90
2018-12-18T18:09:22.980Z,95410.27
2018-12-18T18:16:27.957Z,95419.00
2018-12-18T18:18:56.590Z,95419.38
2018-12-18T18:21:25.421Z,95421.46
2018-12-18T18:23:54.005Z,95423.05
2018-12-18T18:26:22.769Z,95417.23
2018-12-18T18:28:51.485Z,95424.39
2018-12-18T18:31:20.097Z,95422.86
2018-12-18T18:33:49.095Z,95426.75
2018-12-18T18:36:17.730Z,95428.76
2018-12-18T18:38:46.319Z,95429.09
2018-12-18T18:41:14.884Z,95428.20
2018-12-18T18:43:43.496Z,95431.05
2018-12-18T18:47:41.466Z,95426.69
2018-12-18T18:50:10.559Z,95426.19
2018-12-18T18:52:39.228Z,95440.81
2018-12-18T18:55:07.827Z,95429.23
2018-12-18T18:57:36.525Z,95433.81
2018-12-18T19:00:11.616Z,95432.86
2018-12-18T19:02:40.345Z,95434.37
2018-12-18T19:05:09.101Z,95433.59
2018-12-18T19:07:38.417Z,95432.02
2018-12-18T19:10:08.639Z,95428.73
2018-12-18T19:12:37.413Z,95432.91
2018-12-18T19:15:06.741Z,95436.27
2018-12-18T19:17:35.447Z,95435.71
2018-12-18T19:20:04.503Z,95444.65
2018-12-18T19:22:33.274Z,95446.38
2018-12-18T19:25:01.891Z,95442.17
2018-12-18T19:27:30.566Z,95452.88
2018-12-18T19:29:59.131Z,95447.73
2018-12-18T19:32:27.748Z,95444.55
2018-12-18T19:34:56.358Z,95448.16
2018-12-18T19:37:24.953Z,95449.42
2018-12-18T19:39:53.619Z,95452.36
2018-12-18T19:42:22.300Z,95452.81
2018-12-18T19:44:50.991Z,95455.53
2018-12-18T19:47:19.585Z,95467.22
2018-12-18T19:49:48.110Z,95470.96
2018-12-18T19:52:16.704Z,95456.00
2018-12-18T19:54:45.336Z,95454.47
2018-12-18T19:57:13.881Z,95470.78
2018-12-18T19:59:42.521Z,95466.51
2018-12-18T20:02:11.085Z,95460.62
2018-12-18T20:04:39.703Z,95463.66
2018-12-18T20:07:08.262Z,95463.23
2018-12-18T20:09:36.942Z,95459.80
2018-12-18T20:12:05.579Z,95473.32
2018-12-18T20:14:34.297Z,95454.47
2018-12-18T20:17:03.063Z,95460.36
2018-12-18T20:19:31.827Z,95463.86
2018-12-18T20:22:01.327Z,95472.05
2018-12-18T20:24:29.965Z,95464.50
2018-12-18T20:26:58.558Z,95469.12
2018-12-18T20:29:27.197Z,95465.84
2018-12-18T20:31:55.818Z,95461.39
2018-12-18T20:34:24.489Z,95467.60
2018-12-18T20:36:53.081Z,95474.80
2018-12-18T20:39:21.684Z,95467.27
2018-12-18T20:41:50.314Z,95466.96
2018-12-18T20:44:18.888Z,95471.48
2018-12-18T20:46:47.597Z,95467.53
2018-12-18T20:49:16.157Z,95466.27
2018-12-18T20:51:44.766Z,95467.86
2018-12-18T20:54:13.332Z,95471.03
2018-12-18T20:56:42.118Z,95456.04
2018-12-18T20:59:10.758Z,95465.70
2018-12-18T21:01:39.357Z,95463.30
2018-12-18T21:04:07.969Z,95464.43
2018-12-18T21:06:36.644Z,95465.31
2018-12-18T21:09:07.895Z,95463.97
2018-12-18T21:11:36.448Z,95468.73
2018-12-18T21:14:05.379Z,95464.11
2018-12-18T21:16:34.168Z,95458.58
2018-12-18T21:19:02.754Z,95466.72
2018-12-18T21:21:31.439Z,95467.67
2018-12-18T21:24:00.003Z,95462.39
2018-12-18T21:26:29.492Z,95461.64
2018-12-18T21:28:58.087Z,95455.33
2018-12-18T21:31:26.775Z,95463.86
2018-12-18T21:33:55.386Z,95453.95
2018-12-18T21:36:23.967Z,95449.97
2018-12-18T21:38:52.540Z,95451.59
2018-12-18T21:41:21.082Z,95448.41
2018-12-18T21:43:49.663Z,95448.80
2018-12-18T21:46:18.397Z,95443.41
2018-12-18T21:48:47.111Z,95443.61
2018-12-18T21:51:15.797Z,95439.27
2018-12-18T21:53:44.516Z,95440.68
2018-12-18T21:56:13.163Z,95436.34
2018-12-18T21:58:41.742Z,95441.49
2018-12-18T22:01:10.326Z,95440.05
2018-12-18T22:03:38.976Z,95435.93
2018-12-18T22:06:07.495Z,95431.09
2018-12-18T22:08:36.956Z,95429.90
2018-12-18T22:11:05.914Z,95432.55
2018-12-18T22:13:34.474Z,95441.83
2018-12-18T22:16:03.148Z,95435.09
2018-12-18T22:18:31.756Z,95435.72
2018-12-18T22:21:00.384Z,95441.50
2018-12-18T22:23:28.989Z,95442.06
2018-12-18T22:25:57.649Z,95443.96
2018-12-18T22:28:26.296Z,95440.66
2018-12-18T22:30:54.931Z,95434.19
2018-12-18T22:33:23.600Z,95441.95
2018-12-18T22:35:52.159Z,95430.01
2018-12-18T22:38:20.786Z,95444.61
2018-12-18T22:40:49.394Z,95440.63
2018-12-18T22:43:17.998Z,95428.95
2018-12-18T22:45:46.599Z,95437.06
2018-12-18T22:48:15.215Z,95433.11
2018-12-18T22:50:43.810Z,95428.56
2018-12-18T22:53:12.380Z,95428.73
2018-12-18T22:55:44.830Z,95431.34
2018-12-18T22:58:11.605Z,95429.69
2018-12-18T23:00:45.276Z,95418.41
2018-12-18T23:03:13.864Z,95417.95
2018-12-18T23:05:42.520Z,95407.69
2018-12-18T23:08:11.200Z,95406.45
2018-12-18T23:10:39.730Z,95401.69
2018-12-18T23:13:08.388Z,95404.75
2018-12-18T23:15:36.978Z,95398.72
2018-12-18T23:18:05.593Z,95404.61
2018-12-18T23:20:34.137Z,95399.28
2018-12-18T23:23:02.827Z,95396.89
2018-12-18T23:25:31.481Z,95401.44
2018-12-18T23:28:00.083Z,95398.72
2018-12-18T23:30:28.651Z,95398.97
2018-12-18T23:32:57.249Z,95394.77
2018-12-18T23:35:25.888Z,95400.87
2018-12-18T23:37:54.507Z,95404.23
2018-12-18T23:40:23.086Z,95395.72
2018-12-18T23:42:51.623Z,95399.67
2018-12-18T23:45:20.219Z,95400.06
2018-12-18T23:47:48.764Z,95401.08
2018-12-18T23:50:17.321Z,95403.97
2018-12-18T23:52:45.925Z,95398.00
2018-12-18T23:55:14.535Z,95396.66
2018-12-18T23:57:43.103Z,95400.47
